sensor_id;sensor_type;location;lat;lon;timestamp;P1;durP1;ratioP1;P2;durP2;ratioP2
13267;SDS011;6702;47.068;15.458;2023-04-10T00:01:07;6.50;;;5.57;;
13267;SDS011;6702;47.068;15.458;2023-04-10T00:04:10;6.30;;;5.57;;
13267;SDS011;6702;47.068;15.458;2023-04-10T00:07:14;7.33;;;6.57;;
13267;SDS011;6702;47.068;15.458;2023-04-10T00:10:17;5.83;;;5.33;;
13267;SDS011;6702;47.068;15.458;2023-04-10T00:13:21;7.50;;;6.80;;
13267;SDS011;6702;47.068;15.458;2023-04-10T00:16:25;6.57;;;5.83;;
13267;SDS011;6702;47.068;15.458;2023-04-10T00:19:29;7.03;;;6.20;;
13267;SDS011;6702;47.068;15.458;2023-04-10T00:22:32;7.70;;;6.53;;
13267;SDS011;6702;47.068;15.458;2023-04-10T00:25:35;6.83;;;6.17;;
13267;SDS011;6702;47.068;15.458;2023-04-10T00:28:38;5.70;;;5.20;;
13267;SDS011;6702;47.068;15.458;2023-04-10T00:31:43;5.67;;;5.17;;
13267;SDS011;6702;47.068;15.458;2023-04-10T00:34:46;6.07;;;5.47;;
13267;SDS011;6702;47.068;15.458;2023-04-10T00:37:49;5.63;;;5.10;;
13267;SDS011;6702;47.068;15.458;2023-04-10T00:40:54;5.70;;;5.20;;
13267;SDS011;6702;47.068;15.458;2023-04-10T00:43:57;5.60;;;5.10;;
13267;SDS011;6702;47.068;15.458;2023-04-10T00:47:02;5.53;;;4.93;;
13267;SDS011;6702;47.068;15.458;2023-04-10T00:50:06;6.60;;;6.00;;
13267;SDS011;6702;47.068;15.458;2023-04-10T00:53:09;6.37;;;5.50;;
13267;SDS011;6702;47.068;15.458;2023-04-10T00:56:12;7.30;;;6.67;;
13267;SDS011;6702;47.068;15.458;2023-04-10T00:59:16;5.73;;;5.13;;
13267;SDS011;6702;47.068;15.458;2023-04-10T01:02:21;5.90;;;5.27;;
13267;SDS011;6702;47.068;15.458;2023-04-10T01:05:24;6.33;;;5.27;;
13267;SDS011;6702;47.068;15.458;2023-04-10T01:08:32;5.70;;;5.00;;
13267;SDS011;6702;47.068;15.458;2023-04-10T01:11:44;6.47;;;5.47;;
13267;SDS011;6702;47.068;15.458;2023-04-10T01:14:56;6.83;;;6.13;;
13267;SDS011;6702;47.068;15.458;2023-04-10T01:18:06;7.67;;;6.00;;
13267;SDS011;6702;47.068;15.458;2023-04-10T01:21:17;5.70;;;5.20;;
13267;SDS011;6702;47.068;15.458;2023-04-10T01:24:29;7.30;;;6.10;;
13267;SDS011;6702;47.068;15.458;2023-04-10T01:27:45;5.40;;;4.90;;
13267;SDS011;6702;47.068;15.458;2023-04-10T01:31:03;5.70;;;5.10;;
13267;SDS011;6702;47.068;15.458;2023-04-10T01:34:10;6.03;;;5.43;;
13267;SDS011;6702;47.068;15.458;2023-04-10T01:37:19;6.70;;;5.97;;
13267;SDS011;6702;47.068;15.458;2023-04-10T01:40:24;6.23;;;5.50;;
13267;SDS011;6702;47.068;15.458;2023-04-10T01:43:28;6.93;;;5.20;;
13267;SDS011;6702;47.068;15.458;2023-04-10T01:46:34;6.07;;;5.33;;
13267;SDS011;6702;47.068;15.458;2023-04-10T01:49:40;6.70;;;6.00;;
13267;SDS011;6702;47.068;15.458;2023-04-10T01:52:45;6.80;;;6.20;;
13267;SDS011;6702;47.068;15.458;2023-04-10T01:55:49;7.30;;;6.20;;
13267;SDS011;6702;47.068;15.458;2023-04-10T01:58:54;6.67;;;6.00;;
13267;SDS011;6702;47.068;15.458;2023-04-10T02:01:59;7.00;;;6.20;;
13267;SDS011;6702;47.068;15.458;2023-04-10T02:05:03;6.60;;;6.00;;
13267;SDS011;6702;47.068;15.458;2023-04-10T02:08:07;6.67;;;5.50;;
13267;SDS011;6702;47.068;15.458;2023-04-10T02:14:40;8.10;;;6.93;;
13267;SDS011;6702;47.068;15.458;2023-04-10T02:17:47;6.73;;;5.30;;
13267;SDS011;6702;47.068;15.458;2023-04-10T02:20:52;5.20;;;4.80;;
13267;SDS011;6702;47.068;15.458;2023-04-10T02:23:59;6.70;;;6.00;;
13267;SDS011;6702;47.068;15.458;2023-04-10T02:27:02;7.27;;;6.57;;
13267;SDS011;6702;47.068;15.458;2023-04-10T02:30:06;5.70;;;5.20;;
13267;SDS011;6702;47.068;15.458;2023-04-10T02:33:11;8.83;;;6.43;;
13267;SDS011;6702;47.068;15.458;2023-04-10T02:36:14;6.50;;;5.83;;
13267;SDS011;6702;47.068;15.458;2023-04-10T02:39:17;5.77;;;5.17;;
13267;SDS011;6702;47.068;15.458;2023-04-10T02:42:20;5.50;;;5.00;;
13267;SDS011;6702;47.068;15.458;2023-04-10T02:45:23;5.90;;;5.30;;
13267;SDS011;6702;47.068;15.458;2023-04-10T02:48:28;6.63;;;5.43;;
13267;SDS011;6702;47.068;15.458;2023-04-10T02:51:33;6.33;;;5.83;;
13267;SDS011;6702;47.068;15.458;2023-04-10T02:54:36;6.40;;;5.80;;
13267;SDS011;6702;47.068;15.458;2023-04-10T02:57:39;6.60;;;5.93;;
13267;SDS011;6702;47.068;15.458;2023-04-10T03:00:46;6.73;;;5.40;;
13267;SDS011;6702;47.068;15.458;2023-04-10T03:03:51;6.90;;;5.53;;
13267;SDS011;6702;47.068;15.458;2023-04-10T03:06:55;5.97;;;5.47;;
13267;SDS011;6702;47.068;15.458;2023-04-10T03:09:59;6.53;;;5.73;;
13267;SDS011;6702;47.068;15.458;2023-04-10T03:13:03;6.00;;;5.33;;
13267;SDS011;6702;47.068;15.458;2023-04-10T03:16:06;6.33;;;5.73;;
13267;SDS011;6702;47.068;15.458;2023-04-10T03:19:10;6.87;;;5.83;;
13267;SDS011;6702;47.068;15.458;2023-04-10T03:22:14;5.47;;;4.97;;
13267;SDS011;6702;47.068;15.458;2023-04-10T03:25:17;7.83;;;6.23;;
13267;SDS011;6702;47.068;15.458;2023-04-10T03:28:20;6.07;;;5.33;;
13267;SDS011;6702;47.068;15.458;2023-04-10T03:31:23;6.60;;;4.90;;
13267;SDS011;6702;47.068;15.458;2023-04-10T03:34:28;8.37;;;5.83;;
13267;SDS011;6702;47.068;15.458;2023-04-10T03:37:31;6.37;;;5.03;;
13267;SDS011;6702;47.068;15.458;2023-04-10T03:40:34;6.10;;;5.60;;
13267;SDS011;6702;47.068;15.458;2023-04-10T03:43:37;5.57;;;5.03;;
13267;SDS011;6702;47.068;15.458;2023-04-10T03:46:41;6.07;;;5.47;;
13267;SDS011;6702;47.068;15.458;2023-04-10T03:49:46;7.67;;;6.23;;
13267;SDS011;6702;47.068;15.458;2023-04-10T03:52:49;6.87;;;5.40;;
13267;SDS011;6702;47.068;15.458;2023-04-10T03:55:52;6.07;;;5.57;;
13267;SDS011;6702;47.068;15.458;2023-04-10T03:58:56;6.90;;;5.37;;
13267;SDS011;6702;47.068;15.458;2023-04-10T04:01:59;7.27;;;5.73;;
13267;SDS011;6702;47.068;15.458;2023-04-10T04:05:04;6.47;;;5.87;;
13267;SDS011;6702;47.068;15.458;2023-04-10T04:08:07;6.77;;;5.70;;
13267;SDS011;6702;47.068;15.458;2023-04-10T04:11:10;8.10;;;5.47;;
13267;SDS011;6702;47.068;15.458;2023-04-10T04:14:13;5.63;;;5.03;;
13267;SDS011;6702;47.068;15.458;2023-04-10T04:17:16;6.83;;;6.00;;
13267;SDS011;6702;47.068;15.458;2023-04-10T04:20:21;6.60;;;6.00;;
13267;SDS011;6702;47.068;15.458;2023-04-10T04:23:24;6.30;;;5.50;;
13267;SDS011;6702;47.068;15.458;2023-04-10T04:26:27;7.50;;;5.80;;
13267;SDS011;6702;47.068;15.458;2023-04-10T04:29:31;7.07;;;5.97;;
13267;SDS011;6702;47.068;15.458;2023-04-10T04:32:35;6.10;;;5.60;;
13267;SDS011;6702;47.068;15.458;2023-04-10T04:35:39;5.93;;;5.33;;
13267;SDS011;6702;47.068;15.458;2023-04-10T04:38:42;7.87;;;5.50;;
13267;SDS011;6702;47.068;15.458;2023-04-10T04:41:45;8.23;;;6.23;;
13267;SDS011;6702;47.068;15.458;2023-04-10T04:44:48;5.43;;;4.93;;
13267;SDS011;6702;47.068;15.458;2023-04-10T04:47:52;6.47;;;5.60;;
13267;SDS011;6702;47.068;15.458;2023-04-10T04:50:56;6.40;;;5.80;;
13267;SDS011;6702;47.068;15.458;2023-04-10T04:53:59;7.43;;;6.70;;
13267;SDS011;6702;47.068;15.458;2023-04-10T04:57:02;7.43;;;6.57;;
13267;SDS011;6702;47.068;15.458;2023-04-10T05:00:06;6.30;;;5.70;;
13267;SDS011;6702;47.068;15.458;2023-04-10T05:03:10;9.10;;;5.70;;
13267;SDS011;6702;47.068;15.458;2023-04-10T05:06:14;8.60;;;6.50;;
13267;SDS011;6702;47.068;15.458;2023-04-10T05:09:18;9.10;;;7.20;;
13267;SDS011;6702;47.068;15.458;2023-04-10T05:12:22;7.33;;;6.63;;
13267;SDS011;6702;47.068;15.458;2023-04-10T05:15:25;7.43;;;6.37;;
13267;SDS011;6702;47.068;15.458;2023-04-10T05:18:28;8.30;;;7.47;;
13267;SDS011;6702;47.068;15.458;2023-04-10T05:21:33;5.77;;;5.27;;
13267;SDS011;6702;47.068;15.458;2023-04-10T05:24:37;8.50;;;6.93;;
13267;SDS011;6702;47.068;15.458;2023-04-10T05:27:41;7.17;;;6.17;;
13267;SDS011;6702;47.068;15.458;2023-04-10T05:30:44;7.27;;;6.53;;
13267;SDS011;6702;47.068;15.458;2023-04-10T05:33:47;9.20;;;7.10;;
13267;SDS011;6702;47.068;15.458;2023-04-10T05:36:51;7.30;;;6.53;;
13267;SDS011;6702;47.068;15.458;2023-04-10T05:39:57;6.80;;;6.10;;
13267;SDS011;6702;47.068;15.458;2023-04-10T05:43:01;7.43;;;6.73;;
13267;SDS011;6702;47.068;15.458;2023-04-10T05:46:04;7.57;;;6.67;;
13267;SDS011;6702;47.068;15.458;2023-04-10T05:49:08;8.27;;;7.20;;
13267;SDS011;6702;47.068;15.458;2023-04-10T05:52:12;8.73;;;7.83;;
13267;SDS011;6702;47.068;15.458;2023-04-10T05:55:15;8.80;;;7.53;;
13267;SDS011;6702;47.068;15.458;2023-04-10T05:58:18;7.40;;;6.70;;
13267;SDS011;6702;47.068;15.458;2023-04-10T06:01:22;8.10;;;7.10;;
13267;SDS011;6702;47.068;15.458;2023-04-10T06:04:25;8.27;;;7.47;;
13267;SDS011;6702;47.068;15.458;2023-04-10T06:07:29;9.20;;;7.40;;
13267;SDS011;6702;47.068;15.458;2023-04-10T06:10:33;7.60;;;6.93;;
13267;SDS011;6702;47.068;15.458;2023-04-10T06:13:36;8.63;;;7.23;;
13267;SDS011;6702;47.068;15.458;2023-04-10T06:16:39;8.00;;;7.00;;
13267;SDS011;6702;47.068;15.458;2023-04-10T06:19:43;8.27;;;7.47;;
13267;SDS011;6702;47.068;15.458;2023-04-10T06:22:48;6.93;;;6.17;;
13267;SDS011;6702;47.068;15.458;2023-04-10T06:25:51;8.03;;;7.03;;
13267;SDS011;6702;47.068;15.458;2023-04-10T06:28:54;7.10;;;6.40;;
13267;SDS011;6702;47.068;15.458;2023-04-10T06:31:57;8.73;;;7.70;;
13267;SDS011;6702;47.068;15.458;2023-04-10T06:35:00;6.73;;;6.13;;
13267;SDS011;6702;47.068;15.458;2023-04-10T06:38:05;7.30;;;6.67;;
13267;SDS011;6702;47.068;15.458;2023-04-10T06:41:09;8.10;;;7.30;;
13267;SDS011;6702;47.068;15.458;2023-04-10T06:44:12;8.77;;;6.90;;
13267;SDS011;6702;47.068;15.458;2023-04-10T06:47:15;8.00;;;7.27;;
13267;SDS011;6702;47.068;15.458;2023-04-10T06:50:18;7.10;;;6.40;;
13267;SDS011;6702;47.068;15.458;2023-04-10T06:53:23;8.00;;;7.30;;
13267;SDS011;6702;47.068;15.458;2023-04-10T06:56:26;7.90;;;7.13;;
13267;SDS011;6702;47.068;15.458;2023-04-10T06:59:29;7.60;;;6.83;;
13267;SDS011;6702;47.068;15.458;2023-04-10T07:02:35;8.03;;;7.33;;
13267;SDS011;6702;47.068;15.458;2023-04-10T07:05:38;8.10;;;7.37;;
13267;SDS011;6702;47.068;15.458;2023-04-10T07:08:44;7.97;;;7.27;;
13267;SDS011;6702;47.068;15.458;2023-04-10T07:11:47;7.23;;;6.63;;
13267;SDS011;6702;47.068;15.458;2023-04-10T07:14:50;8.53;;;7.70;;
13267;SDS011;6702;47.068;15.458;2023-04-10T07:17:56;8.33;;;7.63;;
13267;SDS011;6702;47.068;15.458;2023-04-10T07:20:59;9.50;;;8.70;;
13267;SDS011;6702;47.068;15.458;2023-04-10T07:24:04;8.80;;;7.90;;
13267;SDS011;6702;47.068;15.458;2023-04-10T07:27:07;8.57;;;7.80;;
13267;SDS011;6702;47.068;15.458;2023-04-10T07:30:10;8.43;;;7.73;;
13267;SDS011;6702;47.068;15.458;2023-04-10T07:33:14;8.20;;;7.50;;
13267;SDS011;6702;47.068;15.458;2023-04-10T07:36:17;7.13;;;6.53;;
13267;SDS011;6702;47.068;15.458;2023-04-10T07:39:22;7.63;;;7.03;;
13267;SDS011;6702;47.068;15.458;2023-04-10T07:42:25;7.60;;;7.00;;
13267;SDS011;6702;47.068;15.458;2023-04-10T07:45:28;7.83;;;7.23;;
13267;SDS011;6702;47.068;15.458;2023-04-10T07:48:31;8.48;;;7.80;;
13267;SDS011;6702;47.068;15.458;2023-04-10T07:51:34;8.20;;;7.50;;
13267;SDS011;6702;47.068;15.458;2023-04-10T07:54:39;8.10;;;7.50;;
13267;SDS011;6702;47.068;15.458;2023-04-10T07:57:42;7.63;;;7.03;;
13267;SDS011;6702;47.068;15.458;2023-04-10T08:00:45;8.25;;;7.65;;
13267;SDS011;6702;47.068;15.458;2023-04-10T08:03:48;7.82;;;7.13;;
13267;SDS011;6702;47.068;15.458;2023-04-10T08:06:52;7.53;;;6.85;;
13267;SDS011;6702;47.068;15.458;2023-04-10T08:09:57;8.05;;;7.45;;
13267;SDS011;6702;47.068;15.458;2023-04-10T08:13:00;8.30;;;7.50;;
13267;SDS011;6702;47.068;15.458;2023-04-10T08:16:03;7.50;;;6.90;;
13267;SDS011;6702;47.068;15.458;2023-04-10T08:19:07;7.45;;;6.85;;
13267;SDS011;6702;47.068;15.458;2023-04-10T08:22:10;6.97;;;6.47;;
13267;SDS011;6702;47.068;15.458;2023-04-10T08:25:14;7.18;;;6.63;;
13267;SDS011;6702;47.068;15.458;2023-04-10T08:28:18;6.93;;;6.22;;
13267;SDS011;6702;47.068;15.458;2023-04-10T08:31:22;6.72;;;6.22;;
13267;SDS011;6702;47.068;15.458;2023-04-10T08:34:26;6.53;;;6.03;;
13267;SDS011;6702;47.068;15.458;2023-04-10T08:37:29;6.55;;;6.05;;
13267;SDS011;6702;47.068;15.458;2023-04-10T08:40:36;5.70;;;5.30;;
13267;SDS011;6702;47.068;15.458;2023-04-10T08:43:40;6.07;;;5.57;;
13267;SDS011;6702;47.068;15.458;2023-04-10T08:46:43;6.97;;;6.47;;
13267;SDS011;6702;47.068;15.458;2023-04-10T08:49:48;6.80;;;6.38;;
13267;SDS011;6702;47.068;15.458;2023-04-10T08:52:55;6.65;;;6.20;;
13267;SDS011;6702;47.068;15.458;2023-04-10T08:56:08;6.47;;;6.07;;
13267;SDS011;6702;47.068;15.458;2023-04-10T08:59:15;6.82;;;6.32;;
13267;SDS011;6702;47.068;15.458;2023-04-10T09:02:18;6.47;;;5.97;;
13267;SDS011;6702;47.068;15.458;2023-04-10T09:05:24;6.93;;;6.40;;
13267;SDS011;6702;47.068;15.458;2023-04-10T09:08:28;5.70;;;5.30;;
13267;SDS011;6702;47.068;15.458;2023-04-10T09:11:55;6.72;;;6.22;;
13267;SDS011;6702;47.068;15.458;2023-04-10T09:15:02;6.40;;;6.00;;
13267;SDS011;6702;47.068;15.458;2023-04-10T09:18:05;6.13;;;5.63;;
13267;SDS011;6702;47.068;15.458;2023-04-10T09:21:09;5.65;;;5.20;;
13267;SDS011;6702;47.068;15.458;2023-04-10T09:24:13;6.95;;;6.40;;
13267;SDS011;6702;47.068;15.458;2023-04-10T09:27:30;7.18;;;6.68;;
13267;SDS011;6702;47.068;15.458;2023-04-10T09:30:37;6.25;;;5.85;;
13267;SDS011;6702;47.068;15.458;2023-04-10T09:33:41;6.50;;;6.05;;
13267;SDS011;6702;47.068;15.458;2023-04-10T09:36:52;7.00;;;6.50;;
13267;SDS011;6702;47.068;15.458;2023-04-10T09:39:56;6.13;;;5.72;;
13267;SDS011;6702;47.068;15.458;2023-04-10T09:43:00;6.88;;;6.38;;
13267;SDS011;6702;47.068;15.458;2023-04-10T09:46:24;6.25;;;5.85;;
13267;SDS011;6702;47.068;15.458;2023-04-10T09:49:29;7.38;;;6.88;;
13267;SDS011;6702;47.068;15.458;2023-04-10T09:52:47;6.60;;;6.10;;
13267;SDS011;6702;47.068;15.458;2023-04-10T09:55:59;7.85;;;7.15;;
13267;SDS011;6702;47.068;15.458;2023-04-10T09:59:04;8.18;;;7.57;;
13267;SDS011;6702;47.068;15.458;2023-04-10T10:02:08;7.47;;;6.87;;
13267;SDS011;6702;47.068;15.458;2023-04-10T10:05:14;7.10;;;6.57;;
13267;SDS011;6702;47.068;15.458;2023-04-10T10:08:18;7.37;;;6.77;;
13267;SDS011;6702;47.068;15.458;2023-04-10T10:11:22;7.17;;;6.57;;
13267;SDS011;6702;47.068;15.458;2023-04-10T10:14:28;7.43;;;6.83;;
13267;SDS011;6702;47.068;15.458;2023-04-10T10:17:35;6.00;;;5.50;;
13267;SDS011;6702;47.068;15.458;2023-04-10T10:20:44;6.30;;;5.80;;
13267;SDS011;6702;47.068;15.458;2023-04-10T10:23:48;5.40;;;4.90;;
13267;SDS011;6702;47.068;15.458;2023-04-10T10:26:54;5.60;;;5.17;;
13267;SDS011;6702;47.068;15.458;2023-04-10T10:29:59;5.70;;;5.20;;
13267;SDS011;6702;47.068;15.458;2023-04-10T10:33:16;5.63;;;5.13;;
13267;SDS011;6702;47.068;15.458;2023-04-10T10:36:20;5.90;;;5.40;;
13267;SDS011;6702;47.068;15.458;2023-04-10T10:39:27;6.67;;;6.07;;
13267;SDS011;6702;47.068;15.458;2023-04-10T10:42:37;6.50;;;5.90;;
13267;SDS011;6702;47.068;15.458;2023-04-10T10:45:49;6.70;;;6.20;;
13267;SDS011;6702;47.068;15.458;2023-04-10T10:48:57;6.97;;;6.40;;
13267;SDS011;6702;47.068;15.458;2023-04-10T10:52:02;6.60;;;6.00;;
13267;SDS011;6702;47.068;15.458;2023-04-10T10:55:26;6.30;;;5.77;;
13267;SDS011;6702;47.068;15.458;2023-04-10T10:58:44;6.00;;;5.50;;
13267;SDS011;6702;47.068;15.458;2023-04-10T11:08:51;6.90;;;6.23;;
13267;SDS011;6702;47.068;15.458;2023-04-10T11:11:56;11.63;;;9.73;;
13267;SDS011;6702;47.068;15.458;2023-04-10T11:15:00;16.40;;;10.53;;
13267;SDS011;6702;47.068;15.458;2023-04-10T11:18:06;17.80;;;12.53;;
13267;SDS011;6702;47.068;15.458;2023-04-10T11:21:10;37.13;;;32.30;;
13267;SDS011;6702;47.068;15.458;2023-04-10T11:24:14;24.97;;;20.20;;
13267;SDS011;6702;47.068;15.458;2023-04-10T11:27:36;25.33;;;18.83;;
13267;SDS011;6702;47.068;15.458;2023-04-10T11:30:53;12.83;;;11.60;;
13267;SDS011;6702;47.068;15.458;2023-04-10T11:34:01;27.97;;;24.70;;
13267;SDS011;6702;47.068;15.458;2023-04-10T11:37:05;30.87;;;25.33;;
13267;SDS011;6702;47.068;15.458;2023-04-10T11:40:08;10.63;;;9.70;;
13267;SDS011;6702;47.068;15.458;2023-04-10T11:43:12;24.00;;;21.40;;
13267;SDS011;6702;47.068;15.458;2023-04-10T11:46:16;13.60;;;12.30;;
13267;SDS011;6702;47.068;15.458;2023-04-10T11:49:21;27.50;;;19.90;;
13267;SDS011;6702;47.068;15.458;2023-04-10T11:52:25;27.43;;;23.93;;
13267;SDS011;6702;47.068;15.458;2023-04-10T11:55:35;29.63;;;24.60;;
13267;SDS011;6702;47.068;15.458;2023-04-10T11:58:39;16.20;;;13.43;;
13267;SDS011;6702;47.068;15.458;2023-04-10T12:01:43;13.67;;;12.30;;
13267;SDS011;6702;47.068;15.458;2023-04-10T12:04:56;14.90;;;13.40;;
13267;SDS011;6702;47.068;15.458;2023-04-10T12:08:00;10.73;;;9.80;;
13267;SDS011;6702;47.068;15.458;2023-04-10T12:11:03;8.40;;;7.60;;
13267;SDS011;6702;47.068;15.458;2023-04-10T12:14:06;9.50;;;8.70;;
13267;SDS011;6702;47.068;15.458;2023-04-10T12:17:10;10.03;;;9.03;;
13267;SDS011;6702;47.068;15.458;2023-04-10T12:20:15;8.70;;;7.80;;
13267;SDS011;6702;47.068;15.458;2023-04-10T12:23:19;8.70;;;8.00;;
13267;SDS011;6702;47.068;15.458;2023-04-10T12:26:22;8.83;;;8.07;;
13267;SDS011;6702;47.068;15.458;2023-04-10T12:29:26;7.77;;;7.10;;
13267;SDS011;6702;47.068;15.458;2023-04-10T12:32:29;8.23;;;7.43;;
13267;SDS011;6702;47.068;15.458;2023-04-10T12:35:38;7.53;;;6.93;;
13267;SDS011;6702;47.068;15.458;2023-04-10T12:38:42;8.77;;;8.07;;
13267;SDS011;6702;47.068;15.458;2023-04-10T12:41:46;9.43;;;8.40;;
13267;SDS011;6702;47.068;15.458;2023-04-10T12:44:50;8.43;;;7.63;;
13267;SDS011;6702;47.068;15.458;2023-04-10T12:47:54;8.70;;;7.90;;
13267;SDS011;6702;47.068;15.458;2023-04-10T12:50:59;8.27;;;7.37;;
13267;SDS011;6702;47.068;15.458;2023-04-10T12:54:02;8.83;;;8.03;;
13267;SDS011;6702;47.068;15.458;2023-04-10T12:57:06;8.37;;;7.67;;
13267;SDS011;6702;47.068;15.458;2023-04-10T13:00:10;8.13;;;7.33;;
13267;SDS011;6702;47.068;15.458;2023-04-10T13:03:15;8.57;;;7.87;;
13267;SDS011;6702;47.068;15.458;2023-04-10T13:06:19;8.20;;;7.60;;
13267;SDS011;6702;47.068;15.458;2023-04-10T13:09:22;7.80;;;7.10;;
13267;SDS011;6702;47.068;15.458;2023-04-10T13:12:26;7.87;;;7.07;;
13267;SDS011;6702;47.068;15.458;2023-04-10T13:15:30;8.93;;;8.13;;
13267;SDS011;6702;47.068;15.458;2023-04-10T13:18:34;8.47;;;7.77;;
13267;SDS011;6702;47.068;15.458;2023-04-10T13:21:39;8.33;;;7.50;;
13267;SDS011;6702;47.068;15.458;2023-04-10T13:24:42;8.30;;;7.50;;
13267;SDS011;6702;47.068;15.458;2023-04-10T13:27:45;8.30;;;7.60;;
13267;SDS011;6702;47.068;15.458;2023-04-10T13:30:49;10.53;;;9.63;;
13267;SDS011;6702;47.068;15.458;2023-04-10T13:33:52;9.40;;;7.57;;
13267;SDS011;6702;47.068;15.458;2023-04-10T13:36:56;8.60;;;7.70;;
13267;SDS011;6702;47.068;15.458;2023-04-10T13:40:00;9.10;;;8.20;;
13267;SDS011;6702;47.068;15.458;2023-04-10T13:43:05;8.23;;;7.43;;
13267;SDS011;6702;47.068;15.458;2023-04-10T13:46:08;7.17;;;6.50;;
13267;SDS011;6702;47.068;15.458;2023-04-10T13:49:14;9.70;;;8.17;;
13267;SDS011;6702;47.068;15.458;2023-04-10T13:52:19;9.10;;;8.27;;
13267;SDS011;6702;47.068;15.458;2023-04-10T13:55:22;8.00;;;7.20;;
13267;SDS011;6702;47.068;15.458;2023-04-10T13:58:25;7.57;;;6.87;;
13267;SDS011;6702;47.068;15.458;2023-04-10T14:01:32;7.00;;;6.40;;
13267;SDS011;6702;47.068;15.458;2023-04-10T14:04:35;6.90;;;6.30;;
13267;SDS011;6702;47.068;15.458;2023-04-10T14:07:40;8.77;;;8.03;;
13267;SDS011;6702;47.068;15.458;2023-04-10T14:10:43;8.90;;;8.10;;
13267;SDS011;6702;47.068;15.458;2023-04-10T14:13:50;8.83;;;7.97;;
13267;SDS011;6702;47.068;15.458;2023-04-10T14:16:54;7.63;;;6.90;;
13267;SDS011;6702;47.068;15.458;2023-04-10T14:19:57;7.47;;;6.80;;
13267;SDS011;6702;47.068;15.458;2023-04-10T14:23:01;8.10;;;7.30;;
13267;SDS011;6702;47.068;15.458;2023-04-10T14:26:05;7.40;;;6.77;;
13267;SDS011;6702;47.068;15.458;2023-04-10T14:29:08;9.30;;;8.30;;
13267;SDS011;6702;47.068;15.458;2023-04-10T14:32:11;8.47;;;7.63;;
13267;SDS011;6702;47.068;15.458;2023-04-10T14:35:15;7.83;;;7.13;;
13267;SDS011;6702;47.068;15.458;2023-04-10T14:38:19;8.37;;;7.60;;
13267;SDS011;6702;47.068;15.458;2023-04-10T14:41:22;9.17;;;8.20;;
13267;SDS011;6702;47.068;15.458;2023-04-10T14:44:26;9.07;;;8.17;;
13267;SDS011;6702;47.068;15.458;2023-04-10T14:47:30;9.73;;;8.80;;
13267;SDS011;6702;47.068;15.458;2023-04-10T14:50:33;8.80;;;8.10;;
13267;SDS011;6702;47.068;15.458;2023-04-10T14:53:38;9.10;;;8.20;;
13267;SDS011;6702;47.068;15.458;2023-04-10T14:56:41;9.20;;;8.30;;
13267;SDS011;6702;47.068;15.458;2023-04-10T14:59:45;7.67;;;6.97;;
13267;SDS011;6702;47.068;15.458;2023-04-10T15:02:48;7.60;;;6.90;;
13267;SDS011;6702;47.068;15.458;2023-04-10T15:05:57;9.07;;;7.20;;
13267;SDS011;6702;47.068;15.458;2023-04-10T15:09:02;8.10;;;7.40;;
13267;SDS011;6702;47.068;15.458;2023-04-10T15:12:05;8.37;;;7.57;;
13267;SDS011;6702;47.068;15.458;2023-04-10T15:15:09;7.43;;;6.73;;
13267;SDS011;6702;47.068;15.458;2023-04-10T15:18:12;7.70;;;6.90;;
13267;SDS011;6702;47.068;15.458;2023-04-10T15:21:16;7.53;;;6.73;;
13267;SDS011;6702;47.068;15.458;2023-04-10T15:24:22;8.67;;;7.87;;
13267;SDS011;6702;47.068;15.458;2023-04-10T15:27:25;7.87;;;7.17;;
13267;SDS011;6702;47.068;15.458;2023-04-10T15:30:28;8.27;;;7.30;;
13267;SDS011;6702;47.068;15.458;2023-04-10T15:33:32;7.70;;;6.33;;
13267;SDS011;6702;47.068;15.458;2023-04-10T15:36:36;7.90;;;7.10;;
13267;SDS011;6702;47.068;15.458;2023-04-10T15:39:41;7.30;;;6.70;;
13267;SDS011;6702;47.068;15.458;2023-04-10T15:42:44;7.57;;;6.80;;
13267;SDS011;6702;47.068;15.458;2023-04-10T15:45:47;7.53;;;6.83;;
13267;SDS011;6702;47.068;15.458;2023-04-10T15:48:50;8.47;;;7.67;;
13267;SDS011;6702;47.068;15.458;2023-04-10T15:51:53;6.40;;;5.90;;
13267;SDS011;6702;47.068;15.458;2023-04-10T15:54:58;8.47;;;7.53;;
13267;SDS011;6702;47.068;15.458;2023-04-10T15:58:01;7.23;;;6.63;;
13267;SDS011;6702;47.068;15.458;2023-04-10T16:01:04;8.47;;;7.67;;
13267;SDS011;6702;47.068;15.458;2023-04-10T16:04:11;8.13;;;7.33;;
13267;SDS011;6702;47.068;15.458;2023-04-10T16:07:15;7.20;;;6.50;;
13267;SDS011;6702;47.068;15.458;2023-04-10T16:10:20;7.33;;;6.63;;
13267;SDS011;6702;47.068;15.458;2023-04-10T16:13:23;7.20;;;6.50;;
13267;SDS011;6702;47.068;15.458;2023-04-10T16:16:26;7.27;;;6.57;;
13267;SDS011;6702;47.068;15.458;2023-04-10T16:19:30;7.07;;;6.40;;
13267;SDS011;6702;47.068;15.458;2023-04-10T16:22:34;7.33;;;6.63;;
13267;SDS011;6702;47.068;15.458;2023-04-10T16:25:41;6.93;;;6.23;;
13267;SDS011;6702;47.068;15.458;2023-04-10T16:28:45;8.00;;;7.20;;
13267;SDS011;6702;47.068;15.458;2023-04-10T16:31:48;7.33;;;6.63;;
13267;SDS011;6702;47.068;15.458;2023-04-10T16:34:51;6.80;;;6.20;;
13267;SDS011;6702;47.068;15.458;2023-04-10T16:37:54;6.53;;;5.93;;
13267;SDS011;6702;47.068;15.458;2023-04-10T16:40:59;7.77;;;7.07;;
13267;SDS011;6702;47.068;15.458;2023-04-10T16:44:03;7.70;;;7.00;;
13267;SDS011;6702;47.068;15.458;2023-04-10T16:47:06;8.87;;;7.40;;
13267;SDS011;6702;47.068;15.458;2023-04-10T16:50:10;7.47;;;6.77;;
13267;SDS011;6702;47.068;15.458;2023-04-10T16:53:13;7.60;;;6.90;;
13267;SDS011;6702;47.068;15.458;2023-04-10T16:56:18;7.80;;;6.83;;
13267;SDS011;6702;47.068;15.458;2023-04-10T16:59:21;7.43;;;6.73;;
13267;SDS011;6702;47.068;15.458;2023-04-10T17:02:24;8.20;;;7.43;;
13267;SDS011;6702;47.068;15.458;2023-04-10T17:05:31;7.60;;;6.90;;
13267;SDS011;6702;47.068;15.458;2023-04-10T17:08:36;8.20;;;7.40;;
13267;SDS011;6702;47.068;15.458;2023-04-10T17:11:41;7.67;;;6.97;;
13267;SDS011;6702;47.068;15.458;2023-04-10T17:14:44;6.47;;;5.90;;
13267;SDS011;6702;47.068;15.458;2023-04-10T17:17:47;7.67;;;6.93;;
13267;SDS011;6702;47.068;15.458;2023-04-10T17:20:51;7.93;;;7.00;;
13267;SDS011;6702;47.068;15.458;2023-04-10T17:23:54;7.77;;;7.07;;
13267;SDS011;6702;47.068;15.458;2023-04-10T17:26:58;8.97;;;8.07;;
13267;SDS011;6702;47.068;15.458;2023-04-10T17:30:02;6.57;;;5.87;;
13267;SDS011;6702;47.068;15.458;2023-04-10T17:33:06;7.83;;;7.03;;
13267;SDS011;6702;47.068;15.458;2023-04-10T17:36:10;8.97;;;8.17;;
13267;SDS011;6702;47.068;15.458;2023-04-10T17:39:14;8.53;;;7.70;;
13267;SDS011;6702;47.068;15.458;2023-04-10T17:42:19;7.10;;;6.50;;
13267;SDS011;6702;47.068;15.458;2023-04-10T17:45:24;7.80;;;7.10;;
13267;SDS011;6702;47.068;15.458;2023-04-10T17:48:27;6.43;;;5.83;;
13267;SDS011;6702;47.068;15.458;2023-04-10T17:51:31;8.40;;;7.63;;
13267;SDS011;6702;47.068;15.458;2023-04-10T17:54:34;8.57;;;7.77;;
13267;SDS011;6702;47.068;15.458;2023-04-10T17:57:39;14.53;;;11.13;;
13267;SDS011;6702;47.068;15.458;2023-04-10T18:00:42;105.37;;;58.77;;
13267;SDS011;6702;47.068;15.458;2023-04-10T18:03:45;64.80;;;38.77;;
13267;SDS011;6702;47.068;15.458;2023-04-10T18:06:48;29.30;;;18.30;;
13267;SDS011;6702;47.068;15.458;2023-04-10T18:09:51;12.77;;;10.00;;
13267;SDS011;6702;47.068;15.458;2023-04-10T18:12:56;9.10;;;7.80;;
13267;SDS011;6702;47.068;15.458;2023-04-10T18:15:59;14.90;;;13.07;;
13267;SDS011;6702;47.068;15.458;2023-04-10T18:19:03;14.53;;;11.43;;
13267;SDS011;6702;47.068;15.458;2023-04-10T18:22:07;10.83;;;9.77;;
13267;SDS011;6702;47.068;15.458;2023-04-10T18:25:10;12.73;;;10.40;;
13267;SDS011;6702;47.068;15.458;2023-04-10T18:28:15;9.63;;;8.73;;
13267;SDS011;6702;47.068;15.458;2023-04-10T18:31:21;24.63;;;20.77;;
13267;SDS011;6702;47.068;15.458;2023-04-10T18:34:24;20.03;;;15.90;;
13267;SDS011;6702;47.068;15.458;2023-04-10T18:37:28;14.10;;;12.60;;
13267;SDS011;6702;47.068;15.458;2023-04-10T18:40:32;15.27;;;13.67;;